createdAt,value
2023-05-15T00:00:13.816Z,93.08
2023-05-15T00:01:16.592Z,92.88
2023-05-15T00:02:18.420Z,93.20
2023-05-15T00:03:20.447Z,93.33
2023-05-15T00:04:22.452Z,93.20
2023-05-15T00:05:24.552Z,93.33
2023-05-15T00:06:28.358Z,93.02
2023-05-15T00:07:30.376Z,93.58
2023-05-15T00:08:32.232Z,93.69
2023-05-15T00:09:34.102Z,93.88
2023-05-15T00:10:36.151Z,93.65
2023-05-15T00:11:38.052Z,93.60
2023-05-15T00:12:39.996Z,93.62
2023-05-15T00:13:41.843Z,93.66
2023-05-15T00:14:43.792Z,93.96
2023-05-15T00:15:45.698Z,93.79
2023-05-15T00:16:47.702Z,93.85
2023-05-15T00:17:49.602Z,93.99
2023-05-15T00:18:51.600Z,93.30
2023-05-15T00:19:57.796Z,93.09
2023-05-15T00:20:59.846Z,93.59
2023-05-15T00:22:01.821Z,92.94
2023-05-15T00:23:03.756Z,93.38
2023-05-15T00:24:05.871Z,92.96
2023-05-15T00:25:07.839Z,92.62
2023-05-15T00:26:09.786Z,92.86
2023-05-15T00:27:11.628Z,93.12
2023-05-15T00:28:13.535Z,93.11
2023-05-15T00:29:15.294Z,92.71
2023-05-15T00:30:17.224Z,92.67
2023-05-15T00:31:19.077Z,92.93
2023-05-15T00:32:20.971Z,92.86
2023-05-15T00:33:22.829Z,93.02
2023-05-15T00:34:24.920Z,93.24
2023-05-15T00:35:27.029Z,93.67
2023-05-15T00:36:28.959Z,93.16
2023-05-15T00:37:30.767Z,93.59
2023-05-15T00:38:33.933Z,93.53
2023-05-15T00:39:36.408Z,93.48
2023-05-15T00:40:39.204Z,93.21
2023-05-15T00:41:41.385Z,93.17
2023-05-15T00:42:43.775Z,93.09
2023-05-15T00:43:46.970Z,92.98
2023-05-15T00:44:49.168Z,93.36
2023-05-15T00:45:52.316Z,93.19
2023-05-15T00:46:54.913Z,93.29
2023-05-15T00:47:58.145Z,92.96
2023-05-15T00:49:00.387Z,93.49
2023-05-15T00:50:02.870Z,93.32
2023-05-15T00:51:04.821Z,92.72
2023-05-15T00:52:08.849Z,92.84
2023-05-15T00:53:11.306Z,92.68
2023-05-15T00:54:13.285Z,93.44
2023-05-15T00:55:15.214Z,93.56
2023-05-15T00:56:17.850Z,93.42
2023-05-15T00:57:22.006Z,93.40
2023-05-15T00:58:24.200Z,93.35
2023-05-15T00:59:30.494Z,93.17
2023-05-15T01:00:33.436Z,93.14
2023-05-15T01:01:36.295Z,93.03
2023-05-15T01:02:38.362Z,93.57
2023-05-15T01:03:40.389Z,93.23
2023-05-15T01:04:42.404Z,92.88
2023-05-15T01:05:44.494Z,93.52
2023-05-15T01:06:46.432Z,92.77
2023-05-15T01:08:04.715Z,92.44
2023-05-15T01:09:08.546Z,92.75
2023-05-15T01:10:11.034Z,92.78
2023-05-15T01:11:14.199Z,92.22
2023-05-15T01:12:17.123Z,92.54
2023-05-15T01:13:22.837Z,93.14
2023-05-15T01:14:24.741Z,92.97
2023-05-15T01:15:26.889Z,93.04
2023-05-15T01:16:28.814Z,93.38
2023-05-15T01:17:31.556Z,92.91
2023-05-15T01:18:34.162Z,93.20
2023-05-15T01:19:37.125Z,92.89
2023-05-15T01:20:57.729Z,92.90
2023-05-15T01:22:16.243Z,93.11
2023-05-15T01:23:36.551Z,92.71
2023-05-15T01:24:59.692Z,93.24
2023-05-15T01:26:04.636Z,93.39
2023-05-15T01:27:06.497Z,93.14
2023-05-15T01:28:13.203Z,92.93
2023-05-15T01:29:18.630Z,92.39
2023-05-15T01:30:20.315Z,92.30
2023-05-15T01:31:24.044Z,92.54
2023-05-15T01:32:28.870Z,92.58
2023-05-15T01:33:34.744Z,92.78
2023-05-15T01:34:44.439Z,92.80
2023-05-15T01:35:53.231Z,92.90
2023-05-15T01:36:57.247Z,92.76
2023-05-15T01:38:17.352Z,93.46
2023-05-15T01:39:23.387Z,93.21
2023-05-15T01:40:26.860Z,93.67
2023-05-15T01:41:30.553Z,93.61
2023-05-15T01:42:34.623Z,93.54
2023-05-15T01:43:39.426Z,93.16
2023-05-15T01:44:43.947Z,93.67
2023-05-15T01:45:46.362Z,93.00
2023-05-15T01:46:51.976Z,93.16
2023-05-15T01:47:54.787Z,93.22
2023-05-15T01:48:58.769Z,93.17
2023-05-15T01:50:02.263Z,93.24
2023-05-15T01:51:06.396Z,93.73
2023-05-15T01:52:14.799Z,93.91
2023-05-15T01:53:17.302Z,93.97
2023-05-15T01:54:19.811Z,94.00
2023-05-15T01:55:23.378Z,93.59
2023-05-15T01:56:26.483Z,94.04
2023-05-15T01:57:29.178Z,93.61
2023-05-15T01:58:32.153Z,93.29
2023-05-15T01:59:34.995Z,93.13
2023-05-15T02:00:38.026Z,92.94
2023-05-15T02:01:40.664Z,92.89
2023-05-15T02:02:43.557Z,93.30
2023-05-15T02:03:46.412Z,93.00
2023-05-15T02:04:49.159Z,93.01
2023-05-15T02:05:52.169Z,93.44
2023-05-15T02:06:54.255Z,93.78
2023-05-15T02:07:56.958Z,93.44
2023-05-15T02:08:59.613Z,93.76
2023-05-15T02:10:02.432Z,93.29
2023-05-15T02:11:05.178Z,93.51
2023-05-15T02:12:07.695Z,94.13
2023-05-15T02:13:13.009Z,93.81
2023-05-15T02:14:16.666Z,93.57
2023-05-15T02:15:19.486Z,93.57
2023-05-15T02:16:21.511Z,93.48
2023-05-15T02:17:24.252Z,93.44
2023-05-15T02:18:26.356Z,93.30
2023-05-15T02:19:28.208Z,93.61
2023-05-15T02:20:30.124Z,93.24
2023-05-15T02:21:32.074Z,93.22
2023-05-15T02:22:34.165Z,93.27
2023-05-15T02:23:35.979Z,93.52
2023-05-15T02:24:37.876Z,93.36
2023-05-15T02:25:47.939Z,93.56
2023-05-15T02:26:55.624Z,93.49
2023-05-15T02:28:00.547Z,93.35
2023-05-15T02:29:19.407Z,93.11
2023-05-15T02:30:30.194Z,93.18
2023-05-15T02:31:53.041Z,92.83
2023-05-15T02:33:13.558Z,93.24
2023-05-15T02:34:21.301Z,92.87
2023-05-15T02:35:35.083Z,93.26
2023-05-15T02:36:40.917Z,93.05
2023-05-15T02:37:45.920Z,93.50
2023-05-15T02:38:49.275Z,93.03
2023-05-15T02:39:54.615Z,93.70
2023-05-15T02:40:57.464Z,93.83
2023-05-15T02:42:00.606Z,93.82
2023-05-15T02:43:02.666Z,93.25
2023-05-15T02:44:05.118Z,93.45
2023-05-15T02:45:08.029Z,93.27
2023-05-15T02:46:10.861Z,93.40
2023-05-15T02:47:13.022Z,92.92
2023-05-15T02:48:16.114Z,93.09
2023-05-15T02:49:18.157Z,92.75
2023-05-15T02:50:20.682Z,92.39
2023-05-15T02:51:22.491Z,92.60
2023-05-15T02:52:25.028Z,92.52
2023-05-15T02:53:27.041Z,92.09
2023-05-15T02:54:28.853Z,91.99
2023-05-15T02:55:31.216Z,91.97
2023-05-15T02:56:33.046Z,92.36
2023-05-15T02:57:34.898Z,91.93
2023-05-15T02:58:37.432Z,92.40
2023-05-15T02:59:39.387Z,92.54
2023-05-15T03:00:41.306Z,92.52
2023-05-15T03:01:43.517Z,92.82
2023-05-15T03:02:45.467Z,92.64
2023-05-15T03:03:47.779Z,92.93
2023-05-15T03:04:49.632Z,92.58
2023-05-15T03:05:51.456Z,92.61
2023-05-15T03:06:53.352Z,92.45
2023-05-15T03:07:55.186Z,92.15
2023-05-15T03:08:57.094Z,92.27
2023-05-15T03:09:58.896Z,92.27
2023-05-15T03:11:00.784Z,92.42
2023-05-15T03:12:02.670Z,92.47
2023-05-15T03:13:04.568Z,92.50
2023-05-15T03:14:06.465Z,92.63
2023-05-15T03:15:08.665Z,92.73
2023-05-15T03:16:10.636Z,92.45
2023-05-15T03:17:12.701Z,93.07
2023-05-15T03:18:15.828Z,93.17
2023-05-15T03:19:19.817Z,92.74
2023-05-15T03:20:21.703Z,92.65
2023-05-15T03:21:23.561Z,92.83
2023-05-15T03:22:26.096Z,92.75
2023-05-15T03:23:27.988Z,93.03
2023-05-15T03:24:29.847Z,92.81
2023-05-15T03:25:31.775Z,92.99
2023-05-15T03:26:33.627Z,93.65
2023-05-15T03:27:35.531Z,94.03
2023-05-15T03:28:37.352Z,94.16
2023-05-15T03:29:39.591Z,94.30
2023-05-15T03:30:43.981Z,94.09
2023-05-15T03:31:45.840Z,94.00
2023-05-15T03:32:47.663Z,93.72
2023-05-15T03:33:51.073Z,94.00
2023-05-15T03:34:52.948Z,94.14
2023-05-15T03:35:54.986Z,94.32
2023-05-15T03:36:56.920Z,94.12
2023-05-15T03:37:58.738Z,94.52
2023-05-15T03:39:00.673Z,94.52
2023-05-15T03:40:02.610Z,94.22
2023-05-15T03:41:04.462Z,93.65
2023-05-15T03:42:06.502Z,94.22
2023-05-15T03:43:08.352Z,94.22
2023-05-15T03:44:10.198Z,94.23
2023-05-15T03:45:12.197Z,93.69
2023-05-15T03:46:14.022Z,93.94
2023-05-15T03:47:16.256Z,93.74
2023-05-15T03:48:18.140Z,93.37
2023-05-15T03:49:19.909Z,93.49
2023-05-15T03:50:21.788Z,92.91
2023-05-15T03:51:24.542Z,93.15
2023-05-15T03:52:26.423Z,93.08
2023-05-15T03:53:28.339Z,93.22
2023-05-15T03:54:30.931Z,92.54
2023-05-15T03:55:32.880Z,92.62
2023-05-15T03:56:34.809Z,92.55
2023-05-15T03:57:36.814Z,92.44
2023-05-15T03:58:38.723Z,92.74
2023-05-15T03:59:40.729Z,92.43
2023-05-15T04:00:42.636Z,92.34
2023-05-15T04:01:59.416Z,92.13
2023-05-15T04:03:05.833Z,92.78
2023-05-15T04:04:07.974Z,92.24
2023-05-15T04:05:10.222Z,92.27
2023-05-15T04:06:12.262Z,92.19
2023-05-15T04:07:14.084Z,92.37
2023-05-15T04:08:16.827Z,92.16
2023-05-15T04:09:18.652Z,92.44
2023-05-15T04:10:20.583Z,92.50
2023-05-15T04:11:23.728Z,91.95
2023-05-15T04:12:28.375Z,92.47
2023-05-15T04:13:30.191Z,92.00
2023-05-15T04:14:32.068Z,92.15
2023-05-15T04:15:35.434Z,91.91
2023-05-15T04:16:37.337Z,91.43
2023-05-15T04:17:39.316Z,92.12
2023-05-15T04:18:41.182Z,92.49
2023-05-15T04:19:43.216Z,92.76
2023-05-15T04:20:45.076Z,92.76
2023-05-15T04:21:47.025Z,92.85
2023-05-15T04:22:49.114Z,93.44
2023-05-15T04:23:50.990Z,93.81
2023-05-15T04:24:52.911Z,93.87
2023-05-15T04:25:55.195Z,94.10
2023-05-15T04:26:57.130Z,94.31
2023-05-15T04:27:59.011Z,94.34
2023-05-15T04:29:04.590Z,94.59
2023-05-15T04:30:07.457Z,94.45
2023-05-15T04:31:09.291Z,94.51
2023-05-15T04:32:13.149Z,94.28
2023-05-15T04:33:15.114Z,94.42
2023-05-15T04:34:17.308Z,94.13
2023-05-15T04:35:19.435Z,94.07
2023-05-15T04:36:21.352Z,94.19
2023-05-15T04:37:23.222Z,94.21
2023-05-15T04:38:25.147Z,94.33
2023-05-15T04:39:27.069Z,94.24
2023-05-15T04:40:29.091Z,94.18
2023-05-15T04:41:32.026Z,94.08
2023-05-15T04:42:34.549Z,94.02
2023-05-15T04:43:36.647Z,93.78
2023-05-15T04:44:38.489Z,94.00
2023-05-15T04:45:40.387Z,94.17
2023-05-15T04:46:42.242Z,94.49
2023-05-15T04:47:44.204Z,94.94
2023-05-15T04:48:46.429Z,95.25
2023-05-15T04:49:48.467Z,95.04
2023-05-15T04:50:50.361Z,95.63
2023-05-15T04:51:52.178Z,95.71
2023-05-15T04:52:54.411Z,96.10
2023-05-15T04:53:56.265Z,96.17
2023-05-15T04:54:58.244Z,96.08
2023-05-15T04:56:00.135Z,95.97
2023-05-15T04:57:02.914Z,95.91
2023-05-15T04:58:04.923Z,95.60
2023-05-15T04:59:06.848Z,95.08
2023-05-15T05:00:12.534Z,95.14
2023-05-15T05:01:14.447Z,94.40
2023-05-15T05:02:16.323Z,94.20
2023-05-15T05:03:18.349Z,94.11
2023-05-15T05:04:20.495Z,94.16
2023-05-15T05:05:22.566Z,93.67
2023-05-15T05:06:24.720Z,93.89
2023-05-15T05:07:26.546Z,94.24
2023-05-15T05:08:28.403Z,94.15
2023-05-15T05:09:30.426Z,93.66
2023-05-15T05:10:32.228Z,93.30
2023-05-15T05:11:34.117Z,93.83
2023-05-15T05:12:35.928Z,93.86
2023-05-15T05:13:37.869Z,93.46
2023-05-15T05:14:42.527Z,93.11
2023-05-15T05:15:44.683Z,93.46
2023-05-15T05:16:46.532Z,92.94
2023-05-15T05:17:48.402Z,93.09
2023-05-15T05:18:51.039Z,92.98
2023-05-15T05:19:52.990Z,92.50
2023-05-15T05:21:01.907Z,92.94
2023-05-15T05:22:07.914Z,92.58
2023-05-15T05:23:09.866Z,92.62
2023-05-15T05:24:12.122Z,92.80
2023-05-15T05:25:14.063Z,93.27
2023-05-15T05:26:15.873Z,92.79
2023-05-15T05:27:17.783Z,92.55
2023-05-15T05:28:19.647Z,93.01
2023-05-15T05:29:24.193Z,93.14
2023-05-15T05:30:26.149Z,92.95
2023-05-15T05:31:28.042Z,92.71
2023-05-15T05:32:29.860Z,92.27
2023-05-15T05:33:31.763Z,91.87
2023-05-15T05:34:33.627Z,91.89
2023-05-15T05:35:35.455Z,91.59
2023-05-15T05:36:37.448Z,92.07
2023-05-15T05:37:41.297Z,92.29
2023-05-15T05:38:43.532Z,92.26
2023-05-15T05:39:45.461Z,92.20
2023-05-15T05:40:47.303Z,92.15
2023-05-15T05:41:49.168Z,92.27
2023-05-15T05:42:51.058Z,92.38
2023-05-15T05:43:52.870Z,92.36
2023-05-15T05:44:54.882Z,92.02
2023-05-15T05:45:56.736Z,91.42
2023-05-15T05:46:58.520Z,91.99
2023-05-15T05:48:00.385Z,91.94
2023-05-15T05:49:02.297Z,91.30
2023-05-15T05:50:04.326Z,91.18
2023-05-15T05:51:06.448Z,91.46
2023-05-15T05:52:08.542Z,91.98
2023-05-15T05:53:10.515Z,91.91
2023-05-15T05:54:12.407Z,91.32
2023-05-15T05:55:14.439Z,91.08
2023-05-15T05:56:16.453Z,91.21
2023-05-15T05:57:18.396Z,91.00
2023-05-15T05:58:25.547Z,91.45
2023-05-15T05:59:29.489Z,91.18
2023-05-15T06:00:31.927Z,91.66
2023-05-15T06:01:33.955Z,92.10
2023-05-15T06:02:36.485Z,92.59
2023-05-15T06:03:39.653Z,92.97
2023-05-15T06:04:41.850Z,93.26
2023-05-15T06:05:43.765Z,93.47
2023-05-15T06:06:45.615Z,93.57
2023-05-15T06:07:48.208Z,93.05
2023-05-15T06:08:50.035Z,92.63
2023-05-15T06:09:52.104Z,92.46
2023-05-15T06:10:54.026Z,92.40
2023-05-15T06:11:55.894Z,93.06
2023-05-15T06:12:57.794Z,92.45
2023-05-15T06:13:59.635Z,92.55
2023-05-15T06:15:01.462Z,92.26
2023-05-15T06:16:04.091Z,92.75
2023-05-15T06:17:06.177Z,92.71
2023-05-15T06:18:08.300Z,92.77
2023-05-15T06:19:10.158Z,92.49
2023-05-15T06:20:12.381Z,92.36
2023-05-15T06:21:14.216Z,92.10
2023-05-15T06:22:16.056Z,91.73
2023-05-15T06:23:18.086Z,91.63
2023-05-15T06:24:19.925Z,91.31
2023-05-15T06:25:21.979Z,91.54
2023-05-15T06:26:23.944Z,91.80
2023-05-15T06:27:29.595Z,92.08
2023-05-15T06:28:31.467Z,92.80
2023-05-15T06:29:33.247Z,93.03
2023-05-15T06:30:35.144Z,92.72
2023-05-15T06:31:37.009Z,92.91
2023-05-15T06:32:39.918Z,92.38
2023-05-15T06:33:41.762Z,92.42
2023-05-15T06:34:43.611Z,92.79
2023-05-15T06:35:45.981Z,92.56
2023-05-15T06:36:47.781Z,92.79
2023-05-15T06:37:50.589Z,93.07
2023-05-15T06:38:52.468Z,93.48
2023-05-15T06:39:54.317Z,93.68
2023-05-15T06:40:56.264Z,93.83
2023-05-15T06:42:01.719Z,93.91
2023-05-15T06:43:04.101Z,94.39
2023-05-15T06:44:06.009Z,94.45
2023-05-15T06:45:08.127Z,94.05
2023-05-15T06:46:10.117Z,94.06
2023-05-15T06:47:12.400Z,93.79
2023-05-15T06:48:14.294Z,92.93
2023-05-15T06:49:16.155Z,92.82
2023-05-15T06:50:18.125Z,92.40
2023-05-15T06:51:20.100Z,92.36
2023-05-15T06:52:21.930Z,92.40
2023-05-15T06:53:23.915Z,92.39
2023-05-15T06:54:25.834Z,92.41
2023-05-15T06:55:27.922Z,92.40
2023-05-15T06:56:29.974Z,93.04
2023-05-15T06:57:31.816Z,92.20
2023-05-15T06:58:33.655Z,92.25
2023-05-15T06:59:36.044Z,92.70
2023-05-15T07:00:37.856Z,92.24
2023-05-15T07:01:39.810Z,92.39
2023-05-15T07:02:41.793Z,92.65
2023-05-15T07:03:43.626Z,92.29
2023-05-15T07:04:45.597Z,92.74
2023-05-15T07:05:47.535Z,92.00
2023-05-15T07:06:49.430Z,91.76
2023-05-15T07:07:51.253Z,91.98
2023-05-15T07:08:53.166Z,92.46
2023-05-15T07:09:55.012Z,92.61
2023-05-15T07:10:57.050Z,91.95
2023-05-15T07:11:58.935Z,91.61
2023-05-15T07:13:00.854Z,91.41
2023-05-15T07:14:02.710Z,91.19
2023-05-15T07:15:05.162Z,90.15
2023-05-15T07:16:07.240Z,90.11
2023-05-15T07:17:09.498Z,89.33
2023-05-15T07:18:11.387Z,88.90
2023-05-15T07:19:13.653Z,89.33
2023-05-15T07:20:16.033Z,88.91
2023-05-15T07:21:17.920Z,89.64
2023-05-15T07:22:20.030Z,89.08
2023-05-15T07:23:21.906Z,89.51
2023-05-15T07:24:23.742Z,90.22
2023-05-15T07:25:25.924Z,90.15
2023-05-15T07:26:36.329Z,90.11
2023-05-15T07:27:40.547Z,89.43
2023-05-15T07:28:42.427Z,88.51
2023-05-15T07:29:44.337Z,88.33
2023-05-15T07:30:46.291Z,88.02
2023-05-15T07:31:48.140Z,88.74
2023-05-15T07:32:50.257Z,88.73
2023-05-15T07:33:52.245Z,88.59
2023-05-15T07:34:54.079Z,87.33
2023-05-15T07:35:56.030Z,88.02
2023-05-15T07:36:57.896Z,86.94
2023-05-15T07:37:59.860Z,87.86
2023-05-15T07:39:01.746Z,88.22
2023-05-15T07:40:04.854Z,88.49
2023-05-15T07:41:06.966Z,88.63
2023-05-15T07:42:08.871Z,89.10
2023-05-15T07:43:10.800Z,89.05
2023-05-15T07:44:12.609Z,89.22
2023-05-15T07:45:14.589Z,88.73
2023-05-15T07:46:16.613Z,88.39
2023-05-15T07:47:18.570Z,88.34
2023-05-15T07:48:20.720Z,88.43
2023-05-15T07:49:22.549Z,89.27
2023-05-15T07:50:24.487Z,88.99
2023-05-15T07:51:26.368Z,89.35
2023-05-15T07:52:28.225Z,88.67
2023-05-15T07:53:30.108Z,89.14
2023-05-15T07:54:32.715Z,88.92
2023-05-15T07:55:34.538Z,88.62
2023-05-15T07:56:36.498Z,88.45
2023-05-15T07:57:38.499Z,88.35
2023-05-15T07:58:40.691Z,87.75
2023-05-15T07:59:42.506Z,87.53
2023-05-15T08:00:44.398Z,88.02
2023-05-15T08:01:46.258Z,88.48
2023-05-15T08:02:49.063Z,88.50
2023-05-15T08:03:51.131Z,88.83
2023-05-15T08:04:53.100Z,88.84
2023-05-15T08:05:54.968Z,88.67
2023-05-15T08:06:57.067Z,88.67
2023-05-15T08:07:58.996Z,88.37
2023-05-15T08:09:01.210Z,88.43
2023-05-15T08:10:06.417Z,88.13
2023-05-15T08:11:08.340Z,88.31
2023-05-15T08:12:17.948Z,88.08
2023-05-15T08:13:19.808Z,88.29
2023-05-15T08:14:21.757Z,88.26
2023-05-15T08:15:24.424Z,87.90
2023-05-15T08:16:26.729Z,88.22
2023-05-15T08:17:28.800Z,88.58
2023-05-15T08:18:30.702Z,88.69
2023-05-15T08:19:32.706Z,88.08
2023-05-15T08:20:34.603Z,87.93
2023-05-15T08:21:36.423Z,87.72
2023-05-15T08:22:38.366Z,88.11
2023-05-15T08:23:40.163Z,87.54
2023-05-15T08:24:42.124Z,87.23
2023-05-15T08:25:43.982Z,87.23
2023-05-15T08:26:45.812Z,87.79
2023-05-15T08:27:47.666Z,87.72
2023-05-15T08:28:49.504Z,87.84
2023-05-15T08:29:51.583Z,87.80
2023-05-15T08:30:53.575Z,87.60
2023-05-15T08:31:55.448Z,87.53
2023-05-15T08:32:57.351Z,86.40
2023-05-15T08:33:59.212Z,86.35
2023-05-15T08:35:01.149Z,85.84
2023-05-15T08:36:03.042Z,86.30
2023-05-15T08:37:06.381Z,86.84
2023-05-15T08:38:08.230Z,86.61
2023-05-15T08:39:10.465Z,88.17
2023-05-15T08:40:12.671Z,87.89
2023-05-15T08:41:28.801Z,88.12
2023-05-15T08:42:45.927Z,88.00
2023-05-15T08:43:48.977Z,88.18
2023-05-15T08:44:50.906Z,87.57
2023-05-15T08:45:54.392Z,87.57
2023-05-15T08:46:58.336Z,87.36
2023-05-15T08:48:00.936Z,86.75
2023-05-15T08:49:11.760Z,86.58
2023-05-15T08:50:15.576Z,87.21
2023-05-15T08:51:19.167Z,87.82
2023-05-15T08:52:21.323Z,87.48
2023-05-15T08:53:23.334Z,87.17
2023-05-15T08:54:25.872Z,87.55
2023-05-15T08:55:29.370Z,87.49
2023-05-15T08:56:31.357Z,87.50
2023-05-15T08:57:33.395Z,88.23
2023-05-15T08:58:35.309Z,88.51
2023-05-15T08:59:38.064Z,88.24
2023-05-15T09:00:39.950Z,87.82
2023-05-15T09:01:41.931Z,88.04
2023-05-15T09:02:43.998Z,88.39
2023-05-15T09:03:47.610Z,89.09
2023-05-15T09:04:49.595Z,90.16
2023-05-15T09:05:53.660Z,90.44
2023-05-15T09:06:56.465Z,90.76
2023-05-15T09:08:00.181Z,90.12
2023-05-15T09:09:02.648Z,90.34
2023-05-15T09:10:04.794Z,90.31
2023-05-15T09:11:08.169Z,90.77
2023-05-15T09:12:11.900Z,90.39
2023-05-15T09:13:15.213Z,89.87
2023-05-15T09:14:17.113Z,89.76
2023-05-15T09:15:22.336Z,89.97
2023-05-15T09:16:24.359Z,90.47
2023-05-15T09:17:26.252Z,90.21
2023-05-15T09:18:28.211Z,89.81
2023-05-15T09:19:30.174Z,89.34
2023-05-15T09:20:36.986Z,89.05
2023-05-15T09:21:38.890Z,88.58
2023-05-15T09:22:41.135Z,89.02
2023-05-15T09:23:43.090Z,89.22
2023-05-15T09:24:49.491Z,89.42
2023-05-15T09:25:56.001Z,89.52
2023-05-15T09:27:03.144Z,90.07
2023-05-15T09:28:05.825Z,90.07
2023-05-15T09:29:07.712Z,89.89
2023-05-15T09:30:10.453Z,89.82
2023-05-15T09:31:12.516Z,90.05
2023-05-15T09:32:15.084Z,89.32
2023-05-15T09:33:17.349Z,89.42
2023-05-15T09:34:19.155Z,89.42
2023-05-15T09:35:34.388Z,89.11
2023-05-15T09:36:37.164Z,88.63
2023-05-15T09:37:39.042Z,87.91
2023-05-15T09:38:48.746Z,88.13
2023-05-15T09:39:50.678Z,87.66
2023-05-15T09:41:01.186Z,88.00
2023-05-15T09:42:06.344Z,87.60
2023-05-15T09:43:10.263Z,88.06
2023-05-15T09:44:21.250Z,88.33
2023-05-15T09:45:25.941Z,88.28
2023-05-15T09:46:28.029Z,87.83
2023-05-15T09:47:30.132Z,87.56
2023-05-15T09:48:32.984Z,87.69
2023-05-15T09:49:35.647Z,88.59
2023-05-15T09:50:40.160Z,86.62
2023-05-15T09:51:43.597Z,86.15
2023-05-15T09:52:45.684Z,86.13
2023-05-15T09:53:52.140Z,86.93
2023-05-15T09:54:54.123Z,86.61
2023-05-15T09:55:56.513Z,86.71
2023-05-15T09:57:07.296Z,87.13
2023-05-15T09:58:11.264Z,87.18
2023-05-15T09:59:14.865Z,87.19
2023-05-15T10:00:20.121Z,87.12
2023-05-15T10:01:23.214Z,87.60
2023-05-15T10:02:32.659Z,87.79
2023-05-15T10:03:34.730Z,87.59
2023-05-15T10:04:37.120Z,87.49
2023-05-15T10:05:43.723Z,87.29
2023-05-15T10:06:46.996Z,87.54
2023-05-15T10:07:54.181Z,87.11
2023-05-15T10:08:56.292Z,87.58
2023-05-15T10:09:58.621Z,87.38
2023-05-15T10:11:01.870Z,86.32
2023-05-15T10:12:04.469Z,86.67
2023-05-15T10:13:07.600Z,86.06
2023-05-15T10:14:11.295Z,85.82
2023-05-15T10:15:13.919Z,85.54
2023-05-15T10:16:16.081Z,85.53
2023-05-15T10:17:21.067Z,85.41
2023-05-15T10:18:26.467Z,85.92
2023-05-15T10:19:29.073Z,85.93
2023-05-15T10:20:32.410Z,85.50
2023-05-15T10:21:35.456Z,84.88
2023-05-15T10:22:38.506Z,85.32
2023-05-15T10:23:42.104Z,85.40
2023-05-15T10:24:45.195Z,85.83
2023-05-15T10:26:01.025Z,86.55
2023-05-15T10:27:03.710Z,86.59
2023-05-15T10:28:08.841Z,86.93
2023-05-15T10:29:11.976Z,86.88
2023-05-15T10:30:17.036Z,86.53
2023-05-15T10:31:18.994Z,85.63
2023-05-15T10:32:21.717Z,85.02
2023-05-15T10:33:24.482Z,84.82
2023-05-15T10:34:26.610Z,85.10
2023-05-15T10:35:28.938Z,85.58
2023-05-15T10:36:33.049Z,86.51
2023-05-15T10:37:36.810Z,86.58
2023-05-15T10:38:38.994Z,86.72
2023-05-15T10:39:41.575Z,87.49
2023-05-15T10:40:44.313Z,87.83
2023-05-15T10:41:46.778Z,87.04
2023-05-15T10:42:49.057Z,85.91
2023-05-15T10:43:53.477Z,85.69
2023-05-15T10:45:00.402Z,86.12
2023-05-15T10:46:04.092Z,86.21
2023-05-15T10:47:06.343Z,85.87
2023-05-15T10:48:08.923Z,86.27
2023-05-15T10:49:10.817Z,86.75
2023-05-15T10:50:13.785Z,86.74
2023-05-15T10:51:16.914Z,86.50
2023-05-15T10:52:19.089Z,86.44
2023-05-15T10:53:21.331Z,87.45
2023-05-15T10:54:23.321Z,88.06
2023-05-15T10:55:25.176Z,88.80
2023-05-15T10:56:38.087Z,89.72
2023-05-15T10:57:40.069Z,89.44
2023-05-15T10:58:46.853Z,89.32
2023-05-15T10:59:48.982Z,89.60
2023-05-15T11:00:51.342Z,89.88
2023-05-15T11:01:53.499Z,90.01
2023-05-15T11:02:57.460Z,89.94
2023-05-15T11:04:06.240Z,89.75
2023-05-15T11:05:08.437Z,89.68
2023-05-15T11:06:14.159Z,89.67
2023-05-15T11:07:16.845Z,89.54
2023-05-15T11:08:19.782Z,89.64
2023-05-15T11:09:21.732Z,89.49
2023-05-15T11:10:29.913Z,89.19
2023-05-15T11:11:51.779Z,89.09
2023-05-15T11:13:00.238Z,88.42
2023-05-15T11:14:05.156Z,88.52
2023-05-15T11:15:10.204Z,88.82
2023-05-15T11:16:12.903Z,88.88
2023-05-15T11:17:16.859Z,89.38
2023-05-15T11:18:20.342Z,89.93
2023-05-15T11:19:35.383Z,89.86
2023-05-15T11:20:41.572Z,89.74
2023-05-15T11:21:46.990Z,89.62
2023-05-15T11:22:57.913Z,89.41
2023-05-15T11:24:06.030Z,89.66
2023-05-15T11:25:09.580Z,89.92
2023-05-15T11:26:13.434Z,90.14
2023-05-15T11:27:18.263Z,90.02
2023-05-15T11:28:24.063Z,90.11
2023-05-15T11:29:26.076Z,90.19
2023-05-15T11:30:38.374Z,89.82
2023-05-15T11:31:40.390Z,89.65
2023-05-15T11:32:48.910Z,89.65
2023-05-15T11:33:52.405Z,88.93
2023-05-15T11:34:59.999Z,88.98
2023-05-15T11:36:01.957Z,88.67
2023-05-15T11:37:04.595Z,88.90
2023-05-15T11:38:12.081Z,88.65
2023-05-15T11:39:13.903Z,89.32
2023-05-15T11:40:45.212Z,90.08
2023-05-15T11:41:47.126Z,89.70
2023-05-15T11:43:07.674Z,89.90
2023-05-15T11:44:09.598Z,90.09
2023-05-15T11:45:11.564Z,90.40
2023-05-15T11:46:14.826Z,90.71
2023-05-15T11:47:17.525Z,90.98
2023-05-15T11:48:19.948Z,90.87
2023-05-15T11:49:23.141Z,90.52
2023-05-15T11:50:25.676Z,90.31
2023-05-15T11:51:28.087Z,90.47
2023-05-15T11:52:30.993Z,90.73
2023-05-15T11:53:33.581Z,90.68
2023-05-15T11:54:35.810Z,90.51
2023-05-15T11:55:38.557Z,90.58
2023-05-15T11:56:47.244Z,90.45
2023-05-15T11:57:49.289Z,90.53
2023-05-15T11:58:52.169Z,90.94
2023-05-15T11:59:54.565Z,89.64
2023-05-15T12:00:58.133Z,89.67
2023-05-15T12:02:00.053Z,89.41
2023-05-15T12:03:04.089Z,89.58
2023-05-15T12:04:12.607Z,89.08
2023-05-15T12:05:14.691Z,88.91
2023-05-15T12:06:16.738Z,89.00
2023-05-15T12:07:18.671Z,88.94
2023-05-15T12:08:24.036Z,89.56
2023-05-15T12:09:27.852Z,89.48
2023-05-15T12:10:30.350Z,88.99
2023-05-15T12:11:32.189Z,89.94
2023-05-15T12:12:35.844Z,89.77
2023-05-15T12:13:37.858Z,89.68
2023-05-15T12:14:39.778Z,90.22
2023-05-15T12:15:44.662Z,90.52
2023-05-15T12:16:46.645Z,90.30
2023-05-15T12:17:48.572Z,90.59
2023-05-15T12:18:50.713Z,90.23
2023-05-15T12:19:53.274Z,90.14
2023-05-15T12:20:55.386Z,90.19
2023-05-15T12:21:57.330Z,89.93
2023-05-15T12:22:59.256Z,90.16
2023-05-15T12:25:07.816Z,90.17
2023-05-15T12:26:09.673Z,90.73
2023-05-15T12:27:12.257Z,90.83
2023-05-15T12:28:14.751Z,91.19
2023-05-15T12:29:16.715Z,90.80
2023-05-15T12:30:18.716Z,91.09
2023-05-15T12:31:21.118Z,90.44
2023-05-15T12:32:23.260Z,90.37
2023-05-15T12:33:25.315Z,90.00
2023-05-15T12:34:27.368Z,89.66
2023-05-15T12:35:29.342Z,89.94
2023-05-15T12:36:31.573Z,90.20
2023-05-15T12:37:35.595Z,89.87
2023-05-15T12:38:37.704Z,89.62
2023-05-15T12:39:55.787Z,88.95
2023-05-15T12:40:58.109Z,89.93
2023-05-15T12:42:00.173Z,89.44
2023-05-15T12:43:06.056Z,88.92
2023-05-15T12:44:15.800Z,87.72
2023-05-15T12:45:19.076Z,87.03
2023-05-15T12:46:24.897Z,85.54
2023-05-15T12:47:27.935Z,85.89
2023-05-15T12:48:32.477Z,86.43
2023-05-15T12:49:37.433Z,86.99
2023-05-15T12:50:39.333Z,87.35
2023-05-15T12:51:44.375Z,87.22
2023-05-15T12:52:47.413Z,86.79
2023-05-15T12:53:49.219Z,86.23
2023-05-15T12:54:51.140Z,85.82
2023-05-15T12:55:53.038Z,85.29
2023-05-15T12:56:57.549Z,85.04
2023-05-15T12:58:02.406Z,81.47
2023-05-15T12:59:04.840Z,79.85
2023-05-15T13:00:08.121Z,81.05
2023-05-15T13:01:10.192Z,81.59
2023-05-15T13:02:13.289Z,82.08
2023-05-15T13:03:15.408Z,82.07
2023-05-15T13:04:17.313Z,81.76
2023-05-15T13:05:19.317Z,81.55
2023-05-15T13:06:23.627Z,80.66
2023-05-15T13:07:26.107Z,81.33
2023-05-15T13:08:28.004Z,83.27
2023-05-15T13:09:30.032Z,83.58
2023-05-15T13:10:32.861Z,83.81
2023-05-15T13:11:34.758Z,84.05
2023-05-15T13:12:38.033Z,82.93
2023-05-15T13:13:43.791Z,82.76
2023-05-15T13:14:45.834Z,81.17
2023-05-15T13:15:49.044Z,81.96
2023-05-15T13:16:50.983Z,82.37
2023-05-15T13:17:59.664Z,82.08
2023-05-15T13:19:01.678Z,80.87
2023-05-15T13:20:05.786Z,80.00
2023-05-15T13:21:07.638Z,80.85
2023-05-15T13:22:09.504Z,80.44
2023-05-15T13:23:12.834Z,79.48
2023-05-15T13:24:15.486Z,76.96
2023-05-15T13:25:17.966Z,77.38
2023-05-15T13:26:19.789Z,77.34
2023-05-15T13:27:21.718Z,78.35
2023-05-15T13:28:23.615Z,78.14
2023-05-15T13:29:25.544Z,79.05
2023-05-15T13:30:28.411Z,77.98
2023-05-15T13:31:30.294Z,77.15
2023-05-15T13:32:32.250Z,76.35
2023-05-15T13:33:36.110Z,76.29
2023-05-15T13:34:38.001Z,77.26
2023-05-15T13:35:41.428Z,76.61